createdAt,value
2019-03-16T00:00:24.513Z,100047.10
2019-03-16T00:01:28.047Z,100049.04
2019-03-16T00:02:31.566Z,100048.00
2019-03-16T00:03:35.116Z,100049.94
2019-03-16T00:04:38.615Z,100049.14
2019-03-16T00:05:42.121Z,100056.81
2019-03-16T00:06:45.643Z,100052.45
2019-03-16T00:07:49.141Z,100058.52
2019-03-16T00:08:52.634Z,100054.70
2019-03-16T00:09:58.803Z,100060.77
2019-03-16T00:11:02.315Z,100062.14
2019-03-16T00:12:05.912Z,100062.94
2019-03-16T00:13:10.493Z,100056.98
2019-03-16T00:14:14.000Z,100051.48
2019-03-16T00:15:17.622Z,100054.23
2019-03-16T00:16:21.120Z,100060.52
2019-03-16T00:17:24.656Z,100058.92
2019-03-16T00:18:28.209Z,100062.20
2019-03-16T00:19:31.712Z,100058.08
2019-03-16T00:20:35.302Z,100064.14
2019-03-16T00:21:38.821Z,100062.30
2019-03-16T00:22:42.452Z,100064.48
2019-03-16T00:23:46.027Z,100068.59
2019-03-16T00:24:49.880Z,100079.34
2019-03-16T00:25:53.480Z,100081.52
2019-03-16T00:26:56.968Z,100081.29
2019-03-16T00:28:00.519Z,100082.66
2019-03-16T00:29:04.135Z,100078.55
2019-03-16T00:30:10.349Z,100073.38
2019-03-16T00:31:13.891Z,100083.80
2019-03-16T00:32:17.376Z,100082.99
2019-03-16T00:33:20.982Z,100084.94
2019-03-16T00:34:24.590Z,100097.86
2019-03-16T00:35:28.198Z,100092.94
2019-03-16T00:36:31.792Z,100088.81
2019-03-16T00:37:35.291Z,100086.64
2019-03-16T00:38:38.985Z,100091.33
2019-03-16T00:39:42.501Z,100096.02
2019-03-16T00:40:45.981Z,100091.42
2019-03-16T00:41:49.486Z,100097.16
2019-03-16T00:42:53.108Z,100101.27
2019-03-16T00:43:56.645Z,100104.59
2019-03-16T00:45:00.368Z,100112.25
2019-03-16T00:46:03.988Z,100104.34
2019-03-16T00:47:07.491Z,100103.78
2019-03-16T00:48:10.971Z,100102.17
2019-03-16T00:49:14.647Z,100106.52
2019-03-16T00:50:18.212Z,100104.92
2019-03-16T00:51:21.713Z,100103.30
2019-03-16T00:52:25.225Z,100100.80
2019-03-16T00:53:28.774Z,100106.28
2019-03-16T00:54:32.351Z,100105.48
2019-03-16T00:55:35.862Z,100103.88
2019-03-16T00:56:39.430Z,100102.73
2019-03-16T00:57:42.994Z,100104.68
2019-03-16T00:58:46.518Z,100101.94
2019-03-16T00:59:50.106Z,100107.42
2019-03-16T01:00:53.661Z,100102.56
2019-03-16T01:01:57.181Z,100106.62
2019-03-16T01:03:00.667Z,100108.80
2019-03-16T01:04:04.333Z,100106.05
2019-03-16T01:05:08.785Z,100104.20
2019-03-16T01:06:12.323Z,100108.56
2019-03-16T01:07:15.823Z,100105.58
2019-03-16T01:08:19.333Z,100108.56
2019-03-16T01:09:22.870Z,100114.05
2019-03-16T01:10:26.414Z,100117.94
2019-03-16T01:11:31.446Z,100122.05
2019-03-16T01:12:35.101Z,100117.66
2019-03-16T01:13:38.732Z,100119.04
2019-03-16T01:14:42.226Z,100114.69
2019-03-16T01:15:45.755Z,100118.23
2019-03-16T01:16:49.237Z,100114.69
2019-03-16T01:17:52.812Z,100112.74
2019-03-16T01:18:56.322Z,100113.31
2019-03-16T01:19:59.809Z,100114.69
2019-03-16T01:21:12.478Z,100118.00
2019-03-16T01:22:15.964Z,100121.87
2019-03-16T01:23:19.447Z,100126.23
2019-03-16T01:24:41.494Z,100126.80
2019-03-16T01:25:45.009Z,100128.17
2019-03-16T01:26:48.522Z,100130.92
2019-03-16T01:27:52.096Z,100128.17
2019-03-16T01:28:55.565Z,100128.74
2019-03-16T01:29:59.062Z,100134.23
2019-03-16T01:31:02.580Z,100136.74
2019-03-16T01:32:06.119Z,100132.30
2019-03-16T01:33:09.694Z,100136.65
2019-03-16T01:34:13.189Z,100140.77
2019-03-16T01:35:16.923Z,100142.65
2019-03-16T01:36:20.707Z,100147.24
2019-03-16T01:37:24.193Z,100146.67
2019-03-16T01:38:28.339Z,100149.09
2019-03-16T01:39:31.833Z,100150.70
2019-03-16T01:40:35.406Z,100150.94
2019-03-16T01:41:38.906Z,100149.56
2019-03-16T01:42:42.402Z,100139.72
2019-03-16T01:43:45.885Z,100137.77
2019-03-16T01:44:49.382Z,100136.16
2019-03-16T01:45:52.874Z,100133.18
2019-03-16T01:46:56.422Z,100134.79
2019-03-16T01:47:59.920Z,100135.36
2019-03-16T01:49:03.395Z,100142.80
2019-03-16T01:50:09.338Z,100147.48
2019-03-16T01:51:12.845Z,100143.36
2019-03-16T01:52:16.370Z,100141.52
2019-03-16T01:53:19.944Z,100143.36
2019-03-16T01:54:23.425Z,100139.57
2019-03-16T01:55:26.913Z,100147.00
2019-03-16T01:56:30.408Z,100147.00
2019-03-16T01:57:34.011Z,100140.14
2019-03-16T01:58:37.576Z,100135.78
2019-03-16T01:59:41.064Z,100140.47
2019-03-16T02:00:44.627Z,100130.29
2019-03-16T02:01:49.438Z,100135.52
2019-03-16T02:02:55.745Z,100135.52
2019-03-16T02:03:58.481Z,100130.02
2019-03-16T02:05:01.974Z,100128.41
2019-03-16T02:06:05.602Z,100125.67
2019-03-16T02:07:09.097Z,100125.43
2019-03-16T02:08:12.623Z,100128.41
2019-03-16T02:09:16.186Z,100126.23
2019-03-16T02:10:19.680Z,100128.74
2019-03-16T02:11:23.440Z,100127.61
2019-03-16T02:12:27.076Z,100129.78
2019-03-16T02:13:30.580Z,100130.92
2019-03-16T02:14:34.162Z,100132.30
2019-03-16T02:15:37.786Z,100139.16
2019-03-16T02:16:41.276Z,100136.41
2019-03-16T02:17:44.794Z,100132.30
2019-03-16T02:18:48.379Z,100136.41
2019-03-16T02:19:51.881Z,100138.02
2019-03-16T02:20:55.361Z,100139.96
2019-03-16T02:21:58.922Z,100136.41
2019-03-16T02:23:02.426Z,100132.30
2019-03-16T02:24:06.021Z,100132.30
2019-03-16T02:25:10.363Z,100127.37
2019-03-16T02:26:13.916Z,100126.80
2019-03-16T02:27:17.403Z,100125.43
2019-03-16T02:28:20.984Z,100121.31
2019-03-16T02:29:24.504Z,100121.07
2019-03-16T02:30:28.012Z,100128.41
2019-03-16T02:31:31.513Z,100122.69
2019-03-16T02:32:35.052Z,100121.31
2019-03-16T02:33:38.782Z,100116.39
2019-03-16T02:34:42.348Z,100113.64
2019-03-16T02:35:45.867Z,100117.19
2019-03-16T02:36:53.115Z,100118.33
2019-03-16T02:37:56.732Z,100118.00
2019-03-16T02:39:00.266Z,100111.94
2019-03-16T02:40:04.683Z,100115.81
2019-03-16T02:41:08.275Z,100108.15
2019-03-16T02:42:11.799Z,100104.59
2019-03-16T02:43:15.285Z,100109.52
2019-03-16T02:44:18.840Z,100109.52
2019-03-16T02:45:22.554Z,100101.85
2019-03-16T02:46:26.015Z,100107.34
2019-03-16T02:47:29.589Z,100109.28
2019-03-16T02:48:33.090Z,100108.48
2019-03-16T02:49:36.589Z,100111.23
2019-03-16T02:50:40.175Z,100108.24
2019-03-16T02:51:43.659Z,100110.75
2019-03-16T02:52:49.943Z,100107.44
2019-03-16T02:53:52.377Z,100108.81
2019-03-16T02:54:55.873Z,100102.52
2019-03-16T02:55:59.383Z,100097.02
2019-03-16T02:57:02.879Z,100095.41
2019-03-16T02:58:06.380Z,100095.41
2019-03-16T02:59:09.881Z,100093.56
2019-03-16T03:00:14.111Z,100091.30
2019-03-16T03:01:17.707Z,100090.25
2019-03-16T03:02:21.282Z,100094.61
2019-03-16T03:03:29.601Z,100088.55
2019-03-16T03:04:30.030Z,100099.53
2019-03-16T03:05:33.584Z,100092.43
2019-03-16T03:06:37.181Z,100092.43
2019-03-16T03:07:40.685Z,100089.69
2019-03-16T03:08:44.165Z,100097.69
2019-03-16T03:09:47.727Z,100096.55
2019-03-16T03:10:51.249Z,100090.58
2019-03-16T03:11:54.767Z,100088.08
2019-03-16T03:12:58.251Z,100090.82
2019-03-16T03:14:01.739Z,100087.84
2019-03-16T03:15:06.746Z,100088.88
2019-03-16T03:16:10.250Z,100087.60
2019-03-16T03:17:13.772Z,100090.58
2019-03-16T03:18:17.401Z,100084.05
2019-03-16T03:19:20.904Z,100084.28
2019-03-16T03:20:24.393Z,100082.91
2019-03-16T03:21:31.016Z,100089.21
2019-03-16T03:22:34.628Z,100096.08
2019-03-16T03:23:44.186Z,100093.66
2019-03-16T03:24:44.416Z,100100.52
2019-03-16T03:25:48.435Z,100101.33
2019-03-16T03:26:54.776Z,100104.64
2019-03-16T03:27:58.295Z,100111.74
2019-03-16T03:29:01.787Z,100106.58
2019-03-16T03:30:11.089Z,100115.05
2019-03-16T03:31:14.762Z,100107.95
2019-03-16T03:32:18.256Z,100112.64
2019-03-16T03:33:21.887Z,100111.27
2019-03-16T03:34:25.577Z,100108.52
2019-03-16T03:35:29.701Z,100110.70
2019-03-16T03:36:33.315Z,100102.22
2019-03-16T03:37:36.803Z,100098.67
2019-03-16T03:38:40.580Z,100099.48
2019-03-16T03:39:44.360Z,100098.11
2019-03-16T03:40:47.827Z,100088.27
2019-03-16T03:41:51.331Z,100093.42
2019-03-16T03:42:54.827Z,100085.98
2019-03-16T03:44:40.428Z,100081.63
2019-03-16T03:45:44.346Z,100080.27
2019-03-16T03:47:12.061Z,100083.01
2019-03-16T03:48:15.639Z,100081.63
2019-03-16T03:49:19.162Z,100078.09
2019-03-16T03:50:22.646Z,100083.01
2019-03-16T03:51:26.215Z,100085.52
2019-03-16T03:52:29.718Z,100079.19
2019-03-16T03:53:33.334Z,100077.02
2019-03-16T03:54:37.031Z,100088.27
2019-03-16T03:55:40.589Z,100088.80
2019-03-16T03:56:44.244Z,100083.88
2019-03-16T03:57:47.905Z,100081.70
2019-03-16T03:58:51.516Z,100080.33
2019-03-16T03:59:55.184Z,100085.52
2019-03-16T04:00:58.802Z,100083.31
2019-03-16T04:02:02.358Z,100084.14
2019-03-16T04:03:06.007Z,100086.62
2019-03-16T04:04:15.795Z,100090.73
2019-03-16T04:05:14.975Z,100086.38
2019-03-16T04:06:18.549Z,100083.97
2019-03-16T04:07:22.469Z,100085.34
2019-03-16T04:08:26.024Z,100084.77
2019-03-16T04:09:42.908Z,100081.80
2019-03-16T04:10:46.408Z,100084.77
2019-03-16T04:11:49.953Z,100080.66
2019-03-16T04:12:53.499Z,100082.83
2019-03-16T04:13:57.233Z,100086.62
2019-03-16T04:15:00.792Z,100079.70
2019-03-16T04:16:04.364Z,100077.75
2019-03-16T04:17:07.946Z,100082.58
2019-03-16T04:18:42.816Z,100086.94
2019-03-16T04:21:19.015Z,100084.98
2019-03-16T04:22:22.492Z,100082.52
2019-03-16T04:23:26.031Z,100086.21
2019-03-16T04:24:29.614Z,100085.31
2019-03-16T04:25:33.355Z,100085.41
2019-03-16T04:26:36.845Z,100086.12
2019-03-16T04:27:40.367Z,100088.91
2019-03-16T04:28:43.994Z,100083.48
2019-03-16T04:29:47.514Z,100084.43
2019-03-16T04:30:50.989Z,100092.00
2019-03-16T04:31:54.546Z,100086.74
2019-03-16T04:32:58.063Z,100082.69
2019-03-16T04:34:01.572Z,100072.41
2019-03-16T04:35:06.368Z,100083.30
2019-03-16T04:36:09.841Z,100081.02
2019-03-16T04:37:13.372Z,100072.44
2019-03-16T04:38:16.863Z,100076.48
2019-03-16T04:39:20.484Z,100071.69
2019-03-16T04:40:24.003Z,100071.25
2019-03-16T04:41:27.527Z,100070.91
2019-03-16T04:42:31.024Z,100076.08
2019-03-16T04:43:34.568Z,100070.48
2019-03-16T04:44:38.099Z,100066.28
2019-03-16T04:45:41.653Z,100069.83
2019-03-16T04:46:45.232Z,100072.58
2019-03-16T04:47:48.725Z,100066.52
2019-03-16T04:48:52.241Z,100069.96
2019-03-16T04:49:55.749Z,100070.20
2019-03-16T04:50:59.307Z,100069.86
2019-03-16T04:52:02.840Z,100063.22
2019-03-16T04:53:06.395Z,100060.47
2019-03-16T04:54:09.881Z,100066.91
2019-03-16T04:55:13.442Z,100071.94
2019-03-16T04:56:16.926Z,100076.06
2019-03-16T04:57:20.854Z,100077.20
2019-03-16T04:58:24.430Z,100070.80
2019-03-16T04:59:27.908Z,100076.22
2019-03-16T05:00:31.409Z,100071.27
2019-03-16T05:01:34.928Z,100077.38
2019-03-16T05:02:38.435Z,100076.02
2019-03-16T05:03:41.944Z,100073.72
2019-03-16T05:04:45.429Z,100078.21
2019-03-16T05:05:48.984Z,100068.35
2019-03-16T05:06:52.468Z,100068.58
2019-03-16T05:07:55.971Z,100075.69
2019-03-16T05:08:59.513Z,100075.23
2019-03-16T05:10:03.142Z,100076.27
2019-03-16T05:11:06.720Z,100071.91
2019-03-16T05:12:10.284Z,100074.31
2019-03-16T05:13:13.793Z,100074.24
2019-03-16T05:14:17.311Z,100070.69
2019-03-16T05:15:20.797Z,100070.69
2019-03-16T05:16:24.375Z,100067.11
2019-03-16T05:17:27.860Z,100067.11
2019-03-16T05:18:31.349Z,100072.30
2019-03-16T05:19:34.875Z,100069.31
2019-03-16T05:20:38.381Z,100067.11
2019-03-16T05:21:41.929Z,100068.48
2019-03-16T05:22:45.432Z,100069.05
2019-03-16T05:23:48.937Z,100069.62
2019-03-16T05:24:52.524Z,100067.78
2019-03-16T05:25:56.126Z,100069.50
2019-03-16T05:26:59.892Z,100065.94
2019-03-16T05:28:03.416Z,100064.33
2019-03-16T05:29:06.897Z,100064.91
2019-03-16T05:30:12.781Z,100066.28
2019-03-16T05:31:16.274Z,100070.41
2019-03-16T05:32:19.830Z,100069.73
2019-03-16T05:33:23.355Z,100063.09
2019-03-16T05:34:26.916Z,100070.19
2019-03-16T05:35:30.444Z,100072.71
2019-03-16T05:36:33.919Z,100068.02
2019-03-16T05:37:37.410Z,100057.81
2019-03-16T05:38:40.918Z,100060.80
2019-03-16T05:39:44.434Z,100063.89
2019-03-16T05:40:47.993Z,100061.94
2019-03-16T05:41:51.618Z,100060.91
2019-03-16T05:42:55.105Z,100054.37
2019-03-16T05:43:58.607Z,100058.27
2019-03-16T05:45:02.108Z,100054.60
2019-03-16T05:46:05.767Z,100057.80
2019-03-16T05:47:09.275Z,100058.59
2019-03-16T05:48:12.776Z,100054.02
2019-03-16T05:49:16.345Z,100052.06
2019-03-16T05:50:19.835Z,100052.30
2019-03-16T05:51:23.374Z,100057.80
2019-03-16T05:52:26.947Z,100063.77
2019-03-16T05:53:30.438Z,100058.95
2019-03-16T05:54:33.924Z,100052.08
2019-03-16T05:55:37.422Z,100057.24
2019-03-16T05:56:41.024Z,100059.42
2019-03-16T05:57:44.511Z,100053.35
2019-03-16T05:58:48.009Z,100046.73
2019-03-16T05:59:51.513Z,100034.09
2019-03-16T06:00:55.005Z,100033.87
2019-03-16T06:01:58.577Z,100036.05
2019-03-16T06:03:02.072Z,100046.02
2019-03-16T06:04:05.573Z,100052.31
2019-03-16T06:05:10.785Z,100050.24
2019-03-16T06:06:14.409Z,100040.16
2019-03-16T06:07:17.996Z,100038.20
2019-03-16T06:08:21.479Z,100041.76
2019-03-16T06:09:25.001Z,100035.80
2019-03-16T06:10:28.513Z,100045.08
2019-03-16T06:11:32.006Z,100039.01
2019-03-16T06:12:35.539Z,100053.45
2019-03-16T06:13:39.037Z,100053.69
2019-03-16T06:14:42.518Z,100045.20
2019-03-16T06:15:46.090Z,100039.13
2019-03-16T06:16:49.615Z,100041.66
2019-03-16T06:17:53.163Z,100045.44
2019-03-16T06:18:56.679Z,100047.05
2019-03-16T06:20:00.375Z,100046.81
2019-03-16T06:21:04.374Z,100049.91
2019-03-16T06:22:07.844Z,100051.62
2019-03-16T06:23:11.371Z,100047.73
2019-03-16T06:24:14.897Z,100059.41
2019-03-16T06:25:18.391Z,100061.02
2019-03-16T06:26:21.886Z,100053.09
2019-03-16T06:27:28.371Z,100051.39
2019-03-16T06:28:31.884Z,100054.14
2019-03-16T06:29:35.469Z,100057.69
2019-03-16T06:30:38.953Z,100057.58
2019-03-16T06:31:42.469Z,100054.83
2019-03-16T06:32:46.041Z,100046.58
2019-03-16T06:33:49.652Z,100044.64
2019-03-16T06:34:53.241Z,100040.74
2019-03-16T06:35:56.746Z,100045.67
2019-03-16T06:37:00.230Z,100056.67
2019-03-16T06:38:03.741Z,100056.94
2019-03-16T06:39:07.784Z,100050.30
2019-03-16T06:40:11.982Z,100048.69
2019-03-16T06:41:15.469Z,100053.61
2019-03-16T06:42:19.036Z,100050.59
2019-03-16T06:43:22.549Z,100051.98
2019-03-16T06:44:26.071Z,100054.27
2019-03-16T06:45:29.570Z,100051.52
2019-03-16T06:46:33.068Z,100057.58
2019-03-16T06:47:36.781Z,100060.91
2019-03-16T06:48:40.252Z,100060.67
2019-03-16T06:49:43.861Z,100062.28
2019-03-16T06:50:47.344Z,100060.56
2019-03-16T06:53:19.549Z,100062.75
2019-03-16T06:54:21.994Z,100061.71
2019-03-16T06:55:25.656Z,100065.50
2019-03-16T06:56:29.128Z,100062.98
2019-03-16T06:57:32.699Z,100064.62
2019-03-16T06:58:36.197Z,100060.80
2019-03-16T06:59:39.670Z,100067.94
2019-03-16T07:00:43.308Z,100068.81
2019-03-16T07:01:46.873Z,100065.03
2019-03-16T07:02:50.502Z,100063.66
2019-03-16T07:03:54.143Z,100064.23
2019-03-16T07:04:57.613Z,100064.80
2019-03-16T07:06:01.128Z,100062.85
2019-03-16T07:07:04.854Z,100058.27
2019-03-16T07:08:08.483Z,100064.10
2019-03-16T07:09:12.075Z,100065.60
2019-03-16T07:10:15.590Z,100065.03
2019-03-16T07:11:19.122Z,100056.20
2019-03-16T07:12:22.698Z,100066.56
2019-03-16T07:13:26.210Z,100056.10
2019-03-16T07:14:42.772Z,100066.56
2019-03-16T07:15:46.277Z,100063.24
2019-03-16T07:17:01.324Z,100069.55
2019-03-16T07:17:55.019Z,100060.48
2019-03-16T07:18:59.220Z,100056.10
2019-03-16T07:20:02.790Z,100058.85
2019-03-16T07:21:06.358Z,100061.60
2019-03-16T07:22:10.054Z,100063.55
2019-03-16T07:23:13.835Z,100057.12
2019-03-16T07:24:17.387Z,100071.33
2019-03-16T07:25:21.036Z,100055.64
2019-03-16T07:26:24.509Z,100058.62
2019-03-16T07:27:28.135Z,100061.94
2019-03-16T07:28:31.626Z,100050.94
2019-03-16T07:29:35.121Z,100047.55
2019-03-16T07:30:38.701Z,100043.98
2019-03-16T07:31:42.484Z,100044.22
2019-03-16T07:32:45.975Z,100042.04
2019-03-16T07:33:49.880Z,100051.56
2019-03-16T07:34:53.455Z,100052.05
2019-03-16T07:35:56.936Z,100051.56
2019-03-16T07:37:00.731Z,100054.66
2019-03-16T07:38:04.332Z,100054.98
2019-03-16T07:39:08.217Z,100048.92
2019-03-16T07:40:13.260Z,100052.55
2019-03-16T07:41:16.743Z,100056.67
2019-03-16T07:42:20.264Z,100048.19
2019-03-16T07:43:41.812Z,100047.95
2019-03-16T07:44:45.300Z,100046.02
2019-03-16T07:45:48.808Z,100052.08
2019-03-16T07:46:52.289Z,100047.73
2019-03-16T07:47:55.877Z,100046.58
2019-03-16T07:49:40.526Z,100038.91
2019-03-16T07:50:44.030Z,100037.99
2019-03-16T07:52:06.987Z,100039.29
2019-03-16T07:53:10.506Z,100035.39
2019-03-16T07:54:14.057Z,100042.27
2019-03-16T07:55:17.805Z,100037.91
2019-03-16T07:56:21.386Z,100039.06
2019-03-16T07:57:24.886Z,100036.31
2019-03-16T07:58:28.410Z,100042.61
2019-03-16T07:59:31.910Z,100047.31
2019-03-16T08:00:35.556Z,100054.73
2019-03-16T08:01:39.029Z,100053.92
2019-03-16T08:02:42.636Z,100047.95
2019-03-16T08:03:46.208Z,100057.81
2019-03-16T08:04:49.699Z,100053.22
2019-03-16T08:05:53.199Z,100051.84
2019-03-16T08:06:56.718Z,100058.27
2019-03-16T08:08:00.301Z,100046.69
2019-03-16T08:09:05.543Z,100053.56
2019-03-16T08:10:10.799Z,100054.27
2019-03-16T08:11:14.290Z,100048.42
2019-03-16T08:12:17.878Z,100045.44
2019-03-16T08:13:21.371Z,100053.35
2019-03-16T08:14:25.043Z,100056.94
2019-03-16T08:15:28.662Z,100055.87
2019-03-16T08:16:32.363Z,100054.42
2019-03-16T08:17:36.111Z,100054.73
2019-03-16T08:18:40.081Z,100053.61
2019-03-16T08:19:43.786Z,100051.17
2019-03-16T08:20:47.609Z,100055.30
2019-03-16T08:21:53.656Z,100063.55
2019-03-16T08:22:57.302Z,100058.05
2019-03-16T08:24:00.825Z,100054.19
2019-03-16T08:25:05.062Z,100058.55
2019-03-16T08:26:08.713Z,100056.26
2019-03-16T08:27:12.369Z,100056.83
2019-03-16T08:28:15.958Z,100062.09
2019-03-16T08:29:19.473Z,100061.99
2019-03-16T08:30:23.867Z,100062.25
2019-03-16T08:31:28.844Z,100063.37
2019-03-16T08:32:32.437Z,100074.86
2019-03-16T08:33:38.099Z,100068.80
2019-03-16T08:34:41.646Z,100071.44
2019-03-16T08:35:46.197Z,100074.53
2019-03-16T08:36:49.812Z,100077.05
2019-03-16T08:37:53.375Z,100071.55
2019-03-16T08:38:57.034Z,100077.05
2019-03-16T08:40:00.938Z,100059.86
2019-03-16T08:41:04.420Z,100073.38
2019-03-16T08:42:07.906Z,100075.33
2019-03-16T08:43:11.507Z,100077.84
2019-03-16T08:44:15.176Z,100070.97
2019-03-16T08:45:18.814Z,100070.17
2019-03-16T08:46:22.493Z,100063.06
2019-03-16T08:47:26.636Z,100071.20
2019-03-16T08:48:30.283Z,100069.15
2019-03-16T08:49:33.962Z,100070.52
2019-03-16T08:50:37.711Z,100072.81
2019-03-16T08:51:41.735Z,100072.81
2019-03-16T08:52:45.475Z,100066.84
2019-03-16T08:53:52.719Z,100071.31
2019-03-16T08:54:59.426Z,100069.78
2019-03-16T08:56:02.942Z,100076.50
2019-03-16T08:57:09.346Z,100078.31
2019-03-16T08:58:16.070Z,100077.62
2019-03-16T08:59:19.571Z,100089.53
2019-03-16T09:00:23.153Z,100085.27
2019-03-16T09:01:26.656Z,100074.58
2019-03-16T09:02:30.365Z,100079.05
2019-03-16T09:03:43.016Z,100078.58
2019-03-16T09:04:39.237Z,100072.84
2019-03-16T09:05:42.936Z,100073.75
2019-03-16T09:06:46.568Z,100067.22
2019-03-16T09:07:50.247Z,100065.61
2019-03-16T09:08:59.142Z,100067.09
2019-03-16T09:10:02.644Z,100059.98
2019-03-16T09:11:06.211Z,100052.14
2019-03-16T09:12:09.778Z,100054.89
2019-03-16T09:13:13.430Z,100050.87
2019-03-16T09:14:16.927Z,100053.72
2019-03-16T09:15:20.431Z,100045.91
2019-03-16T09:16:23.925Z,100044.07
2019-03-16T09:17:27.431Z,100045.75
2019-03-16T09:18:30.947Z,100049.98
2019-03-16T09:19:34.445Z,100045.62
2019-03-16T09:20:38.141Z,100032.45
2019-03-16T09:21:41.960Z,100038.98
2019-03-16T09:22:45.461Z,100048.03
2019-03-16T09:23:48.985Z,100044.48
2019-03-16T09:25:09.948Z,100038.98
2019-03-16T09:26:13.508Z,100031.31
2019-03-16T09:27:17.019Z,100022.27
2019-03-16T09:28:20.575Z,100027.19
2019-03-16T09:29:24.092Z,100031.41
2019-03-16T09:30:27.576Z,100020.42
2019-03-16T09:31:31.088Z,100026.82
2019-03-16T09:32:34.590Z,100023.61
2019-03-16T09:33:38.083Z,100026.13
2019-03-16T09:35:06.587Z,100017.64
2019-03-16T09:36:10.156Z,100016.27
2019-03-16T09:37:13.718Z,100014.16
2019-03-16T09:38:17.231Z,100010.05
2019-03-16T09:39:20.714Z,100007.30
2019-03-16T09:41:11.212Z,100011.34
2019-03-16T09:43:16.652Z,100022.00
2019-03-16T09:44:20.298Z,100020.98
2019-03-16T09:45:23.908Z,100015.86
2019-03-16T09:46:27.746Z,100017.96
2019-03-16T09:47:31.548Z,100015.91
2019-03-16T09:48:42.768Z,100006.30
2019-03-16T09:49:46.413Z,100012.25
2019-03-16T09:50:49.918Z,100015.00
2019-03-16T09:51:53.442Z,100010.78
2019-03-16T09:52:56.938Z,100012.62
2019-03-16T09:54:00.449Z,100029.58
2019-03-16T09:55:05.892Z,100013.66
2019-03-16T09:56:09.392Z,100017.20
2019-03-16T09:57:12.971Z,100014.45
2019-03-16T09:58:16.543Z,100016.87
2019-03-16T09:59:20.047Z,100019.88
2019-03-16T10:00:23.646Z,100017.83
2019-03-16T10:01:27.208Z,100014.41
2019-03-16T10:02:30.711Z,100007.77
2019-03-16T10:03:34.206Z,100017.05
2019-03-16T10:04:37.676Z,100019.02
2019-03-16T10:05:42.142Z,100016.08
2019-03-16T10:06:45.690Z,100018.16
2019-03-16T10:07:49.176Z,100007.51
2019-03-16T10:08:52.741Z,100010.64
2019-03-16T10:09:56.320Z,100012.40
2019-03-16T10:10:59.869Z,100017.22
2019-03-16T10:12:03.558Z,100016.31
2019-03-16T10:13:07.240Z,100013.45
2019-03-16T10:14:10.725Z,100015.55
2019-03-16T10:15:15.077Z,100020.14
2019-03-16T10:16:18.598Z,100009.13
2019-03-16T10:17:22.136Z,100007.98
2019-03-16T10:18:25.675Z,100011.66
2019-03-16T10:19:29.228Z,100005.92
2019-03-16T10:20:32.781Z,99997.10
2019-03-16T10:21:39.282Z,99994.92
2019-03-16T10:22:42.789Z,99997.91
2019-03-16T10:23:46.305Z,100005.12
2019-03-16T10:24:49.779Z,99987.70
2019-03-16T10:25:53.320Z,99984.38
2019-03-16T10:26:56.852Z,99980.48
2019-03-16T10:28:00.434Z,99977.50
2019-03-16T10:29:04.062Z,99981.39
2019-03-16T10:30:13.178Z,99981.39
2019-03-16T10:31:16.646Z,99981.52
2019-03-16T10:32:20.155Z,99980.94
2019-03-16T10:33:23.719Z,99981.74
2019-03-16T10:34:27.245Z,99979.11
2019-03-16T10:35:30.887Z,99978.77
2019-03-16T10:36:34.438Z,99983.80
2019-03-16T10:37:38.118Z,99984.38
2019-03-16T10:38:41.685Z,99985.75
2019-03-16T10:39:45.239Z,99975.66
2019-03-16T10:40:48.814Z,99984.48
2019-03-16T10:41:52.336Z,99981.51
2019-03-16T10:42:55.928Z,99979.33
2019-03-16T10:43:59.422Z,99979.56
2019-03-16T10:45:03.152Z,99976.80
2019-03-16T10:46:08.438Z,99974.05
2019-03-16T10:47:11.860Z,99981.73
2019-03-16T10:48:15.360Z,99978.75
2019-03-16T10:49:18.855Z,99968.09
2019-03-16T10:50:22.354Z,99968.09
2019-03-16T10:51:27.754Z,99970.61
2019-03-16T10:52:31.121Z,99977.49
2019-03-16T10:53:34.619Z,99968.09
2019-03-16T10:54:38.261Z,99972.22
2019-03-16T10:55:41.841Z,99967.86
2019-03-16T10:56:45.391Z,99963.73
2019-03-16T10:57:48.947Z,99960.64
2019-03-16T10:58:56.915Z,99963.73
2019-03-16T10:59:57.743Z,99956.63
2019-03-16T11:01:01.241Z,99948.03
2019-03-16T11:02:04.715Z,99954.11
2019-03-16T11:03:08.210Z,99945.85
2019-03-16T11:04:11.729Z,99951.02
2019-03-16T11:05:15.518Z,99944.94
2019-03-16T11:06:19.068Z,99938.29
2019-03-16T11:08:10.359Z,99937.95
2019-03-16T11:09:14.243Z,99945.97
2019-03-16T11:10:17.881Z,99944.13
2019-03-16T11:11:21.642Z,99943.56
2019-03-16T11:12:41.867Z,99947.45
2019-03-16T11:13:45.351Z,99940.92
2019-03-16T11:15:10.875Z,99943.45
2019-03-16T11:16:14.512Z,99949.29
2019-03-16T11:17:41.406Z,99952.61
2019-03-16T11:18:44.972Z,99959.48
2019-03-16T11:19:48.477Z,99957.05
2019-03-16T11:20:52.015Z,99961.75
2019-03-16T11:21:55.476Z,99961.75
2019-03-16T11:22:58.961Z,99949.86
2019-03-16T11:24:02.545Z,99963.62
2019-03-16T11:25:07.298Z,99953.41
2019-03-16T11:27:38.770Z,99947.23
2019-03-16T11:28:42.282Z,99952.62
2019-03-16T11:29:45.839Z,99949.87
2019-03-16T11:31:14.609Z,99939.89
2019-03-16T11:32:18.107Z,99940.47
2019-03-16T11:34:10.782Z,99941.50
2019-03-16T11:36:09.930Z,99940.70
2019-03-16T11:37:13.545Z,99942.88
2019-03-16T11:38:41.532Z,99933.02
2019-03-16T11:39:45.052Z,99937.72
2019-03-16T11:40:48.625Z,99940.23
2019-03-16T11:41:52.121Z,99949.30
2019-03-16T11:42:55.670Z,99942.19
2019-03-16T11:43:59.324Z,99937.48
2019-03-16T11:45:03.133Z,99945.63
2019-03-16T11:47:46.432Z,99944.25
2019-03-16T11:49:07.172Z,99932.21
2019-03-16T11:50:11.528Z,99936.00
2019-03-16T11:52:46.576Z,99940.13
2019-03-16T11:53:50.074Z,99938.98
2019-03-16T11:54:53.515Z,99941.95
2019-03-16T11:55:56.990Z,99938.86
2019-03-16T11:57:00.512Z,99941.84
2019-03-16T11:58:04.010Z,99941.95
2019-03-16T11:59:07.530Z,99946.09
2019-03-16T12:00:12.561Z,99938.98
2019-03-16T12:01:16.002Z,99933.47
2019-03-16T12:02:19.444Z,99938.75
2019-03-16T12:03:22.956Z,99946.77
2019-03-16T12:04:26.400Z,99939.89
2019-03-16T12:05:29.888Z,99943.80
2019-03-16T12:06:33.347Z,99940.23
2019-03-16T12:07:36.790Z,99944.70
2019-03-16T12:08:40.292Z,99941.73
2019-03-16T12:09:43.739Z,99934.39
2019-03-16T12:10:47.187Z,99939.66
2019-03-16T12:11:51.180Z,99942.49
2019-03-16T12:12:54.833Z,99942.49
2019-03-16T12:13:58.340Z,99946.39
2019-03-16T12:15:01.804Z,99937.56
2019-03-16T12:16:05.244Z,99945.82
2019-03-16T12:17:08.715Z,99948.11
2019-03-16T12:18:12.258Z,99947.31
2019-03-16T12:19:15.717Z,99948.68
2019-03-16T12:20:19.264Z,99935.04
2019-03-16T12:21:22.702Z,99943.86
2019-03-16T12:22:26.173Z,99934.58
2019-03-16T12:23:29.655Z,99937.33
2019-03-16T12:24:33.108Z,99934.89
2019-03-16T12:25:36.576Z,99940.16
2019-03-16T12:26:40.022Z,99939.59
2019-03-16T12:27:43.465Z,99943.72
2019-03-16T12:28:46.929Z,99942.69